createdAt,value
2022-12-08T00:00:47.495Z,4.10
2022-12-08T00:03:51.021Z,3.70
2022-12-08T00:07:11.931Z,4.37
2022-12-08T00:10:47.397Z,4.10
2022-12-08T00:13:37.983Z,3.70
2022-12-08T00:16:42.356Z,3.50
2022-12-08T00:19:45.948Z,3.77
2022-12-08T00:22:48.727Z,3.20
2022-12-08T00:25:51.897Z,3.90
2022-12-08T00:28:57.171Z,4.47
2022-12-08T00:32:01.656Z,3.40
2022-12-08T00:35:06.977Z,3.40
2022-12-08T00:38:09.940Z,3.53
2022-12-08T00:41:15.289Z,3.00
2022-12-08T00:44:20.072Z,4.03
2022-12-08T00:47:27.630Z,3.17
2022-12-08T00:50:30.363Z,3.87
2022-12-08T00:53:33.169Z,3.90
2022-12-08T00:56:36.557Z,3.77
2022-12-08T00:59:39.402Z,3.47
2022-12-08T01:02:43.781Z,3.43
2022-12-08T01:05:46.652Z,3.30
2022-12-08T01:08:49.723Z,3.30
2022-12-08T01:11:52.693Z,3.37
2022-12-08T01:15:00.621Z,3.63
2022-12-08T01:18:07.109Z,3.00
2022-12-08T01:21:10.048Z,3.87
2022-12-08T01:24:14.484Z,2.97
2022-12-08T01:27:17.845Z,3.33
2022-12-08T01:30:21.425Z,3.27
2022-12-08T01:33:26.117Z,3.40
2022-12-08T01:36:30.520Z,3.73
2022-12-08T01:39:33.555Z,3.53
2022-12-08T01:42:38.372Z,3.70
2022-12-08T01:45:43.103Z,3.60
2022-12-08T01:48:47.809Z,2.93
2022-12-08T01:51:56.294Z,3.90
2022-12-08T01:55:03.702Z,4.20
2022-12-08T01:58:16.323Z,3.97
2022-12-08T02:01:19.364Z,3.47
2022-12-08T02:04:23.736Z,3.50
2022-12-08T02:07:26.852Z,3.63
2022-12-08T02:10:32.218Z,3.17
2022-12-08T02:13:37.488Z,3.53
2022-12-08T02:16:46.862Z,2.90
2022-12-08T02:20:14.801Z,3.50
2022-12-08T02:23:25.233Z,2.93
2022-12-08T02:27:08.923Z,3.37
2022-12-08T02:30:23.014Z,3.37
2022-12-08T02:33:54.541Z,3.40
2022-12-08T02:37:06.929Z,4.20
2022-12-08T02:40:19.885Z,4.00
2022-12-08T02:43:30.708Z,3.30
2022-12-08T02:46:36.684Z,3.87
2022-12-08T02:49:41.784Z,3.60
2022-12-08T02:52:46.550Z,3.10
2022-12-08T02:55:59.060Z,3.43
2022-12-08T02:59:19.071Z,3.50
2022-12-08T03:02:41.868Z,3.27
2022-12-08T03:06:02.546Z,2.97
2022-12-08T03:09:11.610Z,3.07
2022-12-08T03:12:19.998Z,3.27
2022-12-08T03:15:23.315Z,3.77
2022-12-08T03:18:34.783Z,3.23
2022-12-08T03:21:41.358Z,2.57
2022-12-08T03:24:47.938Z,2.73
2022-12-08T03:27:52.668Z,3.00
2022-12-08T03:30:59.386Z,2.77
2022-12-08T03:34:03.886Z,2.60
2022-12-08T03:37:10.444Z,2.73
2022-12-08T03:40:16.246Z,2.63
2022-12-08T03:43:19.173Z,2.00
2022-12-08T03:49:26.031Z,2.40
2022-12-08T03:52:30.652Z,2.90
2022-12-08T03:55:33.353Z,3.20
2022-12-08T03:58:37.659Z,3.20
2022-12-08T04:01:40.874Z,2.87
2022-12-08T04:04:44.191Z,2.33
2022-12-08T04:07:48.347Z,2.17
2022-12-08T04:10:51.074Z,2.20
2022-12-08T04:13:54.437Z,2.80
2022-12-08T04:16:57.291Z,2.67
2022-12-08T04:20:00.186Z,3.07
2022-12-08T04:23:04.558Z,2.50
2022-12-08T04:26:08.321Z,2.60
2022-12-08T04:29:11.160Z,2.90
2022-12-08T04:32:13.998Z,2.53
2022-12-08T04:35:17.305Z,3.07
2022-12-08T04:38:21.541Z,2.50
2022-12-08T04:41:24.473Z,2.27
2022-12-08T04:44:29.979Z,3.03
2022-12-08T04:47:36.120Z,2.90
2022-12-08T04:50:40.789Z,2.63
2022-12-08T04:53:46.849Z,3.27
2022-12-08T04:56:49.862Z,3.33
2022-12-08T04:59:52.846Z,3.30
2022-12-08T05:02:55.701Z,2.80
2022-12-08T05:06:00.707Z,3.07
2022-12-08T05:09:05.211Z,2.67
2022-12-08T05:12:08.595Z,3.00
2022-12-08T05:15:11.797Z,3.17
2022-12-08T05:18:15.800Z,2.73
2022-12-08T05:21:18.590Z,2.30
2022-12-08T05:24:23.019Z,2.43
2022-12-08T05:27:25.925Z,3.63
2022-12-08T05:30:29.607Z,2.93
2022-12-08T05:33:32.748Z,2.73
2022-12-08T05:36:35.688Z,3.03
2022-12-08T05:39:40.310Z,2.50
2022-12-08T05:42:43.573Z,2.20
2022-12-08T05:45:47.109Z,2.67
2022-12-08T05:48:49.979Z,2.00
2022-12-08T05:51:55.495Z,2.60
2022-12-08T05:54:59.819Z,2.13
2022-12-08T05:58:07.608Z,2.07
2022-12-08T06:01:20.037Z,2.63
2022-12-08T06:04:23.350Z,2.57
2022-12-08T06:07:26.234Z,2.40
2022-12-08T06:10:31.293Z,2.10
2022-12-08T06:13:34.061Z,2.93
2022-12-08T06:16:37.586Z,2.00
2022-12-08T06:19:42.017Z,2.40
2022-12-08T06:22:44.934Z,2.53
2022-12-08T06:25:49.268Z,2.53
2022-12-08T06:28:54.657Z,2.80
2022-12-08T06:31:57.504Z,2.23
2022-12-08T06:35:00.322Z,2.63
2022-12-08T06:38:03.164Z,2.40
2022-12-08T06:41:08.402Z,3.03
2022-12-08T06:44:11.333Z,2.60
2022-12-08T06:47:26.315Z,2.17
2022-12-08T06:50:30.001Z,2.00
2022-12-08T06:53:32.984Z,1.87
2022-12-08T06:56:37.206Z,2.40
2022-12-08T06:59:40.852Z,2.90
2022-12-08T07:02:43.738Z,1.97
2022-12-08T07:05:46.537Z,2.43
2022-12-08T07:08:49.225Z,2.57
2022-12-08T07:11:53.394Z,2.90
2022-12-08T07:14:56.215Z,2.87
2022-12-08T07:18:00.281Z,2.93
2022-12-08T07:21:08.300Z,2.00
2022-12-08T07:24:11.521Z,2.20
2022-12-08T07:27:15.617Z,2.37
2022-12-08T07:30:18.933Z,2.73
2022-12-08T07:33:21.713Z,2.63
2022-12-08T07:36:25.394Z,2.93
2022-12-08T07:39:30.421Z,2.50
2022-12-08T07:42:34.824Z,2.40
2022-12-08T07:45:37.754Z,2.57
2022-12-08T07:48:40.531Z,3.07
2022-12-08T07:51:43.362Z,1.97
2022-12-08T07:54:46.287Z,2.27
2022-12-08T07:57:51.405Z,3.00
2022-12-08T08:00:54.532Z,2.87
2022-12-08T08:04:01.380Z,3.03
2022-12-08T08:07:07.287Z,2.87
2022-12-08T08:10:11.405Z,2.67
2022-12-08T08:13:15.526Z,2.90
2022-12-08T08:16:19.542Z,3.13
2022-12-08T08:19:22.932Z,3.37
2022-12-08T08:22:26.027Z,3.03
2022-12-08T08:25:28.769Z,2.40
2022-12-08T08:28:33.929Z,3.10
2022-12-08T08:31:36.747Z,3.27
2022-12-08T08:34:39.974Z,3.03
2022-12-08T08:37:47.208Z,3.40
2022-12-08T08:40:51.782Z,3.27
2022-12-08T08:43:57.142Z,3.40
2022-12-08T08:47:00.014Z,3.17
2022-12-08T08:50:03.047Z,2.87
2022-12-08T08:53:06.088Z,3.60
2022-12-08T08:56:10.716Z,3.53
2022-12-08T08:59:15.094Z,3.67
2022-12-08T09:02:19.904Z,3.30
2022-12-08T09:05:22.919Z,3.20
2022-12-08T09:08:27.232Z,3.03
2022-12-08T09:11:30.700Z,4.47
2022-12-08T09:14:35.504Z,3.70
2022-12-08T09:17:38.596Z,4.03
2022-12-08T09:20:41.382Z,2.93
2022-12-08T09:23:44.897Z,3.50
2022-12-08T09:26:48.321Z,4.10
2022-12-08T09:29:52.433Z,3.87
2022-12-08T09:32:55.459Z,3.27
2022-12-08T09:35:58.177Z,3.53
2022-12-08T09:39:00.902Z,3.60
2022-12-08T09:42:06.797Z,3.83
2022-12-08T09:45:13.908Z,4.17
2022-12-08T09:48:20.445Z,3.53
2022-12-08T09:51:25.722Z,4.00
2022-12-08T09:54:33.697Z,4.07
2022-12-08T09:57:37.503Z,4.60
2022-12-08T10:00:41.830Z,3.70
2022-12-08T10:03:44.609Z,4.27
2022-12-08T10:06:54.553Z,4.77
2022-12-08T10:10:03.935Z,3.80
2022-12-08T10:13:16.665Z,4.17
2022-12-08T10:16:30.138Z,4.73
2022-12-08T10:19:35.384Z,4.13
2022-12-08T10:22:44.349Z,4.73
2022-12-08T10:25:49.634Z,3.90
2022-12-08T10:28:52.553Z,3.70
2022-12-08T10:31:58.773Z,3.10
2022-12-08T10:35:05.694Z,3.10
2022-12-08T10:38:18.530Z,3.27
2022-12-08T10:41:21.407Z,2.80
2022-12-08T10:44:24.215Z,2.83
2022-12-08T10:47:30.350Z,2.80
2022-12-08T10:50:36.124Z,2.80
2022-12-08T10:53:47.396Z,2.67
2022-12-08T10:56:54.709Z,2.20
2022-12-08T10:59:58.773Z,2.70
2022-12-08T11:03:05.401Z,3.07
2022-12-08T11:06:17.354Z,3.03
2022-12-08T11:09:40.090Z,2.40
2022-12-08T11:12:45.319Z,2.80
2022-12-08T11:15:48.223Z,2.70
2022-12-08T11:18:58.917Z,2.47
2022-12-08T11:22:01.737Z,2.33
2022-12-08T11:25:11.597Z,2.20
2022-12-08T11:28:14.283Z,2.70
2022-12-08T11:31:30.434Z,2.60
2022-12-08T11:34:38.630Z,2.80
2022-12-08T11:37:44.683Z,2.13
2022-12-08T11:40:47.910Z,2.00
2022-12-08T11:43:57.104Z,2.30
2022-12-08T11:47:06.415Z,2.47
2022-12-08T11:50:21.387Z,2.53
2022-12-08T11:53:30.332Z,1.77
2022-12-08T11:56:35.970Z,2.77
2022-12-08T11:59:41.813Z,2.47
2022-12-08T12:02:49.829Z,2.50
2022-12-08T12:06:37.668Z,2.70
2022-12-08T12:09:53.050Z,2.40
2022-12-08T12:13:09.501Z,2.43
2022-12-08T12:16:43.458Z,2.50
2022-12-08T12:19:49.958Z,2.80
2022-12-08T12:23:00.695Z,2.90
2022-12-08T12:26:07.755Z,2.97
2022-12-08T12:29:20.262Z,2.90
2022-12-08T12:32:24.374Z,2.57
2022-12-08T12:35:34.320Z,2.57
2022-12-08T12:38:59.338Z,3.10
2022-12-08T12:42:03.924Z,2.33
2022-12-08T12:45:25.436Z,3.13
2022-12-08T12:48:28.491Z,3.10
2022-12-08T12:51:46.446Z,3.17
2022-12-08T12:55:22.895Z,2.63
2022-12-08T12:58:42.936Z,2.83
2022-12-08T13:01:55.491Z,3.17
2022-12-08T13:05:03.352Z,3.53
2022-12-08T13:08:17.513Z,2.53
2022-12-08T13:11:21.048Z,3.50
2022-12-08T13:14:50.610Z,3.30
2022-12-08T13:17:53.470Z,3.07
2022-12-08T13:21:03.992Z,2.60
2022-12-08T13:24:32.010Z,3.23
2022-12-08T13:27:36.368Z,2.63
2022-12-08T13:30:46.485Z,3.50
2022-12-08T13:33:49.543Z,2.77
2022-12-08T13:37:01.058Z,3.20
2022-12-08T13:40:09.515Z,3.30
2022-12-08T13:43:20.595Z,3.00
2022-12-08T13:54:35.526Z,3.13
2022-12-08T13:57:07.148Z,3.37
2022-12-08T14:00:18.136Z,3.30
2022-12-08T14:03:22.451Z,2.57
2022-12-08T14:06:29.719Z,2.90
2022-12-08T14:09:36.099Z,2.80
2022-12-08T14:12:39.118Z,2.70
2022-12-08T14:15:42.257Z,2.43
2022-12-08T14:18:46.644Z,2.57
2022-12-08T14:21:54.770Z,2.97
2022-12-08T14:24:59.321Z,2.63
2022-12-08T14:28:05.411Z,3.33
2022-12-08T14:31:14.103Z,2.93
2022-12-08T14:34:18.749Z,2.80
2022-12-08T14:37:22.043Z,3.07
2022-12-08T14:40:28.810Z,2.70
2022-12-08T14:43:32.659Z,2.80
2022-12-08T14:46:36.034Z,2.90
2022-12-08T14:49:41.403Z,2.83
2022-12-08T14:52:45.554Z,3.37
2022-12-08T14:55:49.893Z,2.87
2022-12-08T14:59:05.859Z,2.73
2022-12-08T15:02:22.804Z,2.73
2022-12-08T15:05:31.800Z,2.17
2022-12-08T15:08:35.883Z,2.10
2022-12-08T15:11:38.714Z,2.47
2022-12-08T15:14:55.605Z,2.60
2022-12-08T15:18:13.477Z,3.13
2022-12-08T15:21:17.864Z,2.10
2022-12-08T15:24:24.342Z,2.53
2022-12-08T15:27:27.442Z,2.20
2022-12-08T15:30:31.205Z,3.00
2022-12-08T15:33:33.919Z,2.30
2022-12-08T15:36:39.864Z,2.97
2022-12-08T15:39:42.873Z,2.93
2022-12-08T15:42:45.863Z,2.37
2022-12-08T15:45:58.324Z,2.57
2022-12-08T15:49:02.933Z,2.80
2022-12-08T15:52:12.056Z,3.00
2022-12-08T15:55:16.029Z,2.80
2022-12-08T16:01:44.820Z,2.37
2022-12-08T16:05:33.367Z,2.93
2022-12-08T16:08:38.293Z,2.97
2022-12-08T16:12:06.528Z,2.40
2022-12-08T16:18:37.881Z,2.50
2022-12-08T16:22:29.888Z,2.17
2022-12-08T16:25:22.431Z,2.70
2022-12-08T16:28:55.049Z,3.10
2022-12-08T16:31:49.350Z,2.63
2022-12-08T16:34:53.109Z,2.50
2022-12-08T16:37:56.122Z,2.63
2022-12-08T16:41:17.743Z,2.23
2022-12-08T16:44:20.782Z,2.40
2022-12-08T16:47:23.524Z,2.47
2022-12-08T16:50:28.250Z,2.70
2022-12-08T16:53:31.184Z,2.67
2022-12-08T16:56:35.456Z,2.37
2022-12-08T16:59:39.258Z,2.60
2022-12-08T17:02:42.314Z,3.03
2022-12-08T17:05:45.450Z,2.40
2022-12-08T17:08:48.277Z,1.90
2022-12-08T17:11:52.755Z,1.90
2022-12-08T17:14:55.528Z,2.37
2022-12-08T17:17:58.588Z,2.70
2022-12-08T17:21:01.434Z,2.83
2022-12-08T17:24:04.608Z,2.70
2022-12-08T17:27:08.784Z,2.60
2022-12-08T17:30:15.832Z,2.97
2022-12-08T17:33:26.616Z,2.80
2022-12-08T17:36:30.464Z,3.03
2022-12-08T17:39:33.400Z,2.90
2022-12-08T17:42:38.725Z,2.67
2022-12-08T17:45:42.746Z,2.77
2022-12-08T17:48:45.612Z,2.73
2022-12-08T17:51:49.277Z,3.10
2022-12-08T17:54:52.181Z,2.93
2022-12-08T17:57:56.500Z,3.00
2022-12-08T18:00:59.456Z,3.43
2022-12-08T18:04:03.205Z,2.90
2022-12-08T18:07:06.182Z,3.60
2022-12-08T18:10:09.525Z,3.20
2022-12-08T18:13:13.830Z,3.47
2022-12-08T18:16:17.663Z,3.40
2022-12-08T18:19:20.501Z,3.47
2022-12-08T18:22:23.236Z,3.70
2022-12-08T18:25:26.076Z,3.83
2022-12-08T18:28:33.417Z,3.90
2022-12-08T18:31:36.561Z,3.33
2022-12-08T18:34:39.480Z,3.70
2022-12-08T18:37:42.977Z,3.50
2022-12-08T18:40:48.443Z,3.77
2022-12-08T18:43:53.436Z,3.43
2022-12-08T18:46:56.466Z,3.30
2022-12-08T18:49:59.311Z,3.87
2022-12-08T18:53:02.079Z,3.67
2022-12-08T18:56:05.738Z,4.67
2022-12-08T18:59:12.555Z,3.70
2022-12-08T19:02:15.868Z,3.93
2022-12-08T19:05:18.955Z,4.07
2022-12-08T19:08:24.379Z,3.60
2022-12-08T19:11:30.972Z,4.23
2022-12-08T19:14:35.543Z,3.77
2022-12-08T19:17:40.672Z,3.77
2022-12-08T19:20:43.717Z,3.63
2022-12-08T19:23:47.684Z,4.17
2022-12-08T19:26:51.177Z,4.27
2022-12-08T19:29:56.369Z,3.40
2022-12-08T19:32:59.306Z,4.10
2022-12-08T19:36:07.628Z,3.67
2022-12-08T19:39:33.057Z,4.07
2022-12-08T19:42:54.122Z,3.40
2022-12-08T19:45:58.816Z,3.87
2022-12-08T19:49:01.683Z,4.27
2022-12-08T19:52:04.599Z,4.53
2022-12-08T19:55:08.065Z,4.37
2022-12-08T19:58:12.276Z,4.77
2022-12-08T20:01:17.405Z,4.57
2022-12-08T20:04:20.381Z,4.90
2022-12-08T20:07:23.633Z,5.03
2022-12-08T20:10:29.437Z,4.73
2022-12-08T20:13:45.939Z,4.63
2022-12-08T20:16:53.002Z,4.60
2022-12-08T20:19:55.896Z,4.27
2022-12-08T20:22:58.866Z,4.30
2022-12-08T20:26:05.651Z,4.07
2022-12-08T20:29:08.600Z,4.20
2022-12-08T20:32:14.771Z,4.20
2022-12-08T20:35:17.816Z,4.30
2022-12-08T20:38:20.650Z,3.90
2022-12-08T20:41:24.367Z,4.20
2022-12-08T20:44:28.590Z,3.53
2022-12-08T20:47:32.946Z,4.60
2022-12-08T20:50:35.904Z,4.17
2022-12-08T20:53:39.143Z,4.43
2022-12-08T20:56:48.041Z,4.03
2022-12-08T20:59:51.430Z,4.63
2022-12-08T21:02:57.100Z,4.03
2022-12-08T21:06:01.005Z,3.47
2022-12-08T21:09:03.954Z,4.33
2022-12-08T21:12:07.341Z,3.80
2022-12-08T21:15:12.546Z,3.90
2022-12-08T21:18:18.004Z,3.83
2022-12-08T21:21:21.097Z,3.50
2022-12-08T21:24:28.828Z,2.80
2022-12-08T21:27:35.444Z,3.33
2022-12-08T21:30:40.109Z,3.80
2022-12-08T21:33:44.540Z,3.47
2022-12-08T21:36:47.584Z,3.57
2022-12-08T21:39:50.600Z,4.10
2022-12-08T21:42:54.219Z,2.93
2022-12-08T21:45:57.352Z,3.20
2022-12-08T21:49:01.805Z,3.47
2022-12-08T21:52:04.950Z,3.70
2022-12-08T21:55:09.099Z,4.30
2022-12-08T21:58:12.204Z,3.43
2022-12-08T22:01:15.289Z,4.27
2022-12-08T22:04:21.530Z,3.60
2022-12-08T22:07:24.766Z,3.77
2022-12-08T22:10:27.716Z,3.90
2022-12-08T22:13:30.657Z,3.60
2022-12-08T22:16:33.585Z,3.40
2022-12-08T22:19:38.190Z,3.03
2022-12-08T22:22:41.962Z,3.57
2022-12-08T22:25:49.235Z,3.90
2022-12-08T22:28:52.324Z,3.87
2022-12-08T22:31:55.336Z,3.50
2022-12-08T22:34:59.556Z,3.87
2022-12-08T22:38:02.599Z,3.23
2022-12-08T22:41:05.786Z,4.47
2022-12-08T22:44:09.173Z,3.67
2022-12-08T22:47:12.115Z,3.83
2022-12-08T22:50:16.810Z,4.00
2022-12-08T22:53:25.432Z,3.53
2022-12-08T22:56:40.351Z,3.53
2022-12-08T22:59:45.231Z,3.17
2022-12-08T23:02:48.189Z,3.60
2022-12-08T23:05:52.679Z,3.73
2022-12-08T23:08:56.090Z,3.70
2022-12-08T23:11:59.570Z,3.60
2022-12-08T23:15:02.957Z,3.60
2022-12-08T23:18:06.321Z,3.33
2022-12-08T23:21:13.841Z,4.27
2022-12-08T23:24:16.824Z,3.50
2022-12-08T23:27:19.626Z,3.47
2022-12-08T23:30:22.726Z,3.83
2022-12-08T23:33:25.601Z,3.70
2022-12-08T23:36:29.862Z,3.57
2022-12-08T23:39:32.989Z,4.50
2022-12-08T23:42:36.102Z,4.10
2022-12-08T23:45:38.926Z,4.37
2022-12-08T23:48:41.849Z,3.63
2022-12-08T23:51:46.154Z,4.10
2022-12-08T23:54:50.746Z,3.90
2022-12-08T23:57:53.521Z,3.70
